Metar z połowy godziny Komunikat METAR ze strony awiacja.imgw.pl Metar G30 EPWA METAR EPWA 241130Z 27008KT 230V310 CAVOK 10/M01 Q1022 NOSIG=